Time;durP1;ratioP1;P1;durP2;ratioP2;P2;SDS_P1;SDS_P2;PMS_P1;PMS_P2;Temp;Humidity;BMP_temperature;BMP_pressure;BME280_temperature;BME280_humidity;BME280_pressure;Samples;Min_cycle;Max_cycle;Signal;HPM_P1;HPM_P2
2022/08/09 00:02:08;;;;;;;1.63;1.00;;;19.00;99.90;;;;;;5093078;28;20979;-64
2022/08/09 00:04:34;;;;;;;1.42;1.10;;;19.00;99.90;;;;;;5092952;28;20476;-65
2022/08/09 00:07:01;;;;;;;2.35;1.10;;;19.00;99.90;;;;;;5094403;28;20401;-66
2022/08/09 00:09:27;;;;;;;1.33;0.98;;;18.90;99.90;;;;;;5093177;28;20488;-66
2022/08/09 00:11:53;;;;;;;2.07;1.10;;;18.90;99.90;;;;;;5094583;28;20476;-66
2022/08/09 00:14:19;;;;;;;1.40;1.00;;;18.90;99.90;;;;;;5093654;28;20393;-66
2022/08/09 00:16:44;;;;;;;1.37;1.00;;;18.90;99.90;;;;;;5093159;28;21032;-64
2022/08/09 00:19:10;;;;;;;2.30;1.07;;;18.80;99.90;;;;;;5092505;28;20459;-65
2022/08/09 00:21:37;;;;;;;3.33;1.30;;;18.80;99.90;;;;;;5089844;28;20907;-64
2022/08/09 00:24:03;;;;;;;1.60;1.20;;;18.70;99.90;;;;;;5089554;28;20509;-65
2022/08/09 00:26:29;;;;;;;1.92;1.10;;;18.60;99.90;;;;;;5090072;28;20678;-66
2022/08/09 00:28:56;;;;;;;2.13;1.30;;;18.60;99.90;;;;;;5087726;28;20662;-65
2022/08/09 00:31:22;;;;;;;2.25;1.20;;;18.60;99.90;;;;;;5089827;28;20378;-65
2022/08/09 00:33:50;;;;;;;2.60;1.13;;;18.60;99.90;;;;;;5088769;28;20381;-65
2022/08/09 00:36:15;;;;;;;1.65;1.25;;;18.60;99.90;;;;;;5087765;28;20412;-65
2022/08/09 00:38:41;;;;;;;2.40;1.10;;;18.60;99.90;;;;;;5086733;28;20686;-65
2022/08/09 00:41:06;;;;;;;2.70;1.20;;;18.50;99.90;;;;;;5088763;28;20394;-65
2022/08/09 00:43:36;;;;;;;1.80;1.27;;;18.40;99.90;;;;;;5091276;28;20448;-65
2022/08/09 00:46:04;;;;;;;4.03;1.20;;;18.40;99.90;;;;;;5089666;28;20766;-65
2022/08/09 00:48:30;;;;;;;2.60;1.23;;;18.40;99.90;;;;;;5089863;28;20477;-65
2022/08/09 00:50:56;;;;;;;2.33;1.33;;;18.40;99.90;;;;;;5093518;28;20801;-66
2022/08/09 00:53:22;;;;;;;1.80;1.30;;;18.40;99.90;;;;;;5092683;28;20389;-65
2022/08/09 00:55:48;;;;;;;3.60;1.58;;;18.40;99.90;;;;;;5093055;28;20398;-66
2022/08/09 00:58:13;;;;;;;1.45;1.08;;;18.30;99.90;;;;;;5092831;28;20401;-66
2022/08/09 01:00:42;;;;;;;4.37;1.60;;;18.30;99.90;;;;;;5090205;28;20398;-66
2022/08/09 01:03:18;;;;;;;4.32;1.30;;;18.30;99.90;;;;;;5088644;28;20423;-66
2022/08/09 01:06:03;;;;;;;2.67;1.40;;;18.20;99.90;;;;;;5085039;28;20520;-66
2022/08/09 01:08:44;;;;;;;3.90;1.58;;;18.20;99.90;;;;;;5086927;28;20484;-66
2022/08/09 01:11:28;;;;;;;2.03;1.37;;;18.10;99.90;;;;;;5088487;28;20489;-66
2022/08/09 01:14:12;;;;;;;1.63;1.30;;;18.10;99.90;;;;;;5086110;28;20427;-66
2022/08/09 01:16:43;;;;;;;2.13;1.20;;;18.00;99.90;;;;;;5086632;28;20378;-66
2022/08/09 01:19:26;;;;;;;1.38;1.27;;;18.00;99.90;;;;;;5088091;28;20454;-66
2022/08/09 01:22:06;;;;;;;2.60;1.42;;;18.00;99.90;;;;;;5088607;28;20498;-66
2022/08/09 01:25:16;;;;;;;2.33;1.20;;;17.90;99.90;;;;;;5090602;28;20503;-66
2022/08/09 01:27:44;;;;;;;1.95;1.30;;;17.90;99.90;;;;;;5090162;28;20390;-66
2022/08/09 01:30:10;;;;;;;3.35;1.35;;;17.90;99.90;;;;;;5090392;28;20385;-66
2022/08/09 01:32:39;;;;;;;2.10;1.48;;;17.90;99.90;;;;;;5091300;28;20378;-65
2022/08/09 01:35:09;;;;;;;3.33;1.38;;;17.80;99.90;;;;;;5090456;28;20903;-66
2022/08/09 01:37:37;;;;;;;2.85;1.20;;;17.70;99.90;;;;;;5092462;28;20549;-65
2022/08/09 01:40:05;;;;;;;2.05;1.40;;;17.70;99.90;;;;;;5091401;28;20721;-65
2022/08/09 01:42:33;;;;;;;1.83;1.35;;;17.70;99.90;;;;;;5092032;28;20385;-65
2022/08/09 01:45:00;;;;;;;4.27;1.63;;;17.70;99.90;;;;;;5092505;28;20738;-65
2022/08/09 01:47:27;;;;;;;2.50;1.42;;;17.70;99.90;;;;;;5091207;28;20401;-65
2022/08/09 01:49:54;;;;;;;2.13;1.30;;;17.80;99.90;;;;;;5090144;28;20658;-65
2022/08/09 01:52:21;;;;;;;1.88;1.30;;;17.80;99.90;;;;;;5088192;28;20414;-65
2022/08/09 01:54:52;;;;;;;1.40;1.30;;;17.70;99.90;;;;;;5090085;28;20378;-65
2022/08/09 01:57:37;;;;;;;1.50;1.38;;;17.60;99.90;;;;;;5090900;28;20390;-65
2022/08/09 02:00:07;;;;;;;3.05;1.40;;;17.60;99.90;;;;;;5090798;28;20390;-66
2022/08/09 02:02:37;;;;;;;1.92;1.27;;;17.60;99.90;;;;;;5090230;28;20388;-65
2022/08/09 02:05:07;;;;;;;2.70;1.40;;;17.50;99.90;;;;;;5089007;28;20386;-65
2022/08/09 02:07:38;;;;;;;3.03;1.60;;;17.40;99.90;;;;;;5090520;28;20402;-66
2022/08/09 02:10:09;;;;;;;2.85;1.40;;;17.30;99.90;;;;;;5090444;28;20421;-65
2022/08/09 02:12:36;;;;;;;2.08;1.40;;;17.40;99.90;;;;;;5089517;28;20383;-65
2022/08/09 02:15:04;;;;;;;2.10;1.30;;;17.40;99.90;;;;;;5089549;28;20467;-65
2022/08/09 02:17:32;;;;;;;2.90;1.67;;;17.40;99.90;;;;;;5090724;28;20390;-65
2022/08/09 02:19:58;;;;;;;2.77;1.47;;;17.40;99.90;;;;;;5094773;28;20442;-65
2022/08/09 02:22:35;;;;;;;3.03;1.60;;;17.40;99.90;;;;;;5094787;28;20409;-65
2022/08/09 02:25:03;;;;;;;1.98;1.25;;;17.40;99.90;;;;;;5097053;28;20500;-65
2022/08/09 02:27:33;;;;;;;3.30;1.50;;;17.30;99.90;;;;;;5095263;28;20431;-65
2022/08/09 02:30:01;;;;;;;2.00;1.40;;;17.30;99.90;;;;;;5095311;28;20374;-65
2022/08/09 02:32:29;;;;;;;2.67;1.58;;;17.30;99.90;;;;;;5093045;28;20378;-65
2022/08/09 02:35:01;;;;;;;1.42;1.25;;;17.30;99.90;;;;;;5094968;28;20401;-65
2022/08/09 02:37:30;;;;;;;2.17;1.42;;;17.20;99.90;;;;;;5091542;28;20674;-65
2022/08/09 02:40:05;;;;;;;1.67;1.40;;;17.20;99.90;;;;;;5090954;28;20455;-65
2022/08/09 02:42:34;;;;;;;2.80;1.60;;;17.20;99.90;;;;;;5092192;28;20384;-66
2022/08/09 02:45:12;;;;;;;2.28;1.70;;;17.10;99.90;;;;;;5091336;28;20542;-66
2022/08/09 02:47:40;;;;;;;1.73;1.50;;;17.10;99.90;;;;;;5093275;28;20635;-66
2022/08/09 02:50:15;;;;;;;2.08;1.45;;;17.00;99.90;;;;;;5091818;28;20836;-65
2022/08/09 02:52:47;;;;;;;1.60;1.30;;;17.10;99.90;;;;;;5095568;28;20404;-65
2022/08/09 02:55:15;;;;;;;1.65;1.38;;;17.00;99.90;;;;;;5095679;28;20401;-65
2022/08/09 02:57:43;;;;;;;2.00;1.50;;;16.90;99.90;;;;;;5093878;28;20686;-66
2022/08/09 03:00:10;;;;;;;4.00;1.90;;;16.80;99.90;;;;;;5094606;28;20908;-65
2022/08/09 03:02:42;;;;;;;2.28;1.42;;;16.70;99.90;;;;;;5093705;28;20400;-65
2022/08/09 03:05:11;;;;;;;3.10;1.70;;;16.70;99.90;;;;;;5092418;28;20386;-65
2022/08/09 03:07:39;;;;;;;2.20;1.63;;;16.70;99.90;;;;;;5092325;28;20594;-65
2022/08/09 03:10:06;;;;;;;2.97;1.50;;;16.70;99.90;;;;;;5094963;28;20612;-65
2022/08/09 03:12:34;;;;;;;4.47;1.80;;;16.70;99.90;;;;;;5094471;28;20543;-65
2022/08/09 03:15:01;;;;;;;1.70;1.40;;;16.70;99.90;;;;;;5094617;28;20696;-65
2022/08/09 03:17:28;;;;;;;2.17;1.60;;;16.60;99.90;;;;;;5094393;28;20850;-65
2022/08/09 03:19:57;;;;;;;1.63;1.43;;;16.60;99.90;;;;;;5095414;28;20454;-65
2022/08/09 03:22:24;;;;;;;1.95;1.70;;;16.50;99.90;;;;;;5094564;28;20389;-65
2022/08/09 03:24:49;;;;;;;3.47;1.95;;;16.50;99.90;;;;;;5093442;28;20443;-65
2022/08/09 03:27:15;;;;;;;3.40;1.90;;;16.50;99.90;;;;;;5093228;28;20702;-65
2022/08/09 03:29:42;;;;;;;4.30;2.20;;;16.50;99.90;;;;;;5092147;28;20561;-65
2022/08/09 03:32:08;;;;;;;2.25;1.85;;;16.40;99.90;;;;;;5092604;28;20714;-65
2022/08/09 03:34:34;;;;;;;2.10;1.90;;;16.40;99.90;;;;;;5092635;28;20413;-65
2022/08/09 03:37:02;;;;;;;2.38;1.85;;;16.30;99.90;;;;;;5091136;28;21315;-65
2022/08/09 03:39:28;;;;;;;2.80;1.77;;;16.30;99.90;;;;;;5090400;28;20770;-65
2022/08/09 03:41:54;;;;;;;2.25;1.80;;;16.30;99.90;;;;;;5090843;28;20665;-65
2022/08/09 03:44:21;;;;;;;2.05;1.75;;;16.30;99.90;;;;;;5089821;28;20435;-65
2022/08/09 03:46:48;;;;;;;2.45;1.90;;;16.30;99.90;;;;;;5089782;28;20398;-65
2022/08/09 03:49:15;;;;;;;3.88;1.98;;;16.30;99.90;;;;;;5089702;28;20717;-65
2022/08/09 03:51:43;;;;;;;2.45;1.80;;;16.20;99.90;;;;;;5089511;28;20483;-65
2022/08/09 03:54:10;;;;;;;2.80;1.80;;;16.20;99.90;;;;;;5091603;28;20428;-65
2022/08/09 03:56:36;;;;;;;2.78;1.92;;;16.20;99.90;;;;;;5089060;28;20434;-65
2022/08/09 03:59:02;;;;;;;2.72;1.90;;;16.20;99.90;;;;;;5089135;28;20394;-65
2022/08/09 04:01:29;;;;;;;2.40;2.13;;;16.20;99.90;;;;;;5087099;28;20390;-65
2022/08/09 04:03:56;;;;;;;4.05;2.00;;;16.10;99.90;;;;;;5087282;28;20381;-65
2022/08/09 04:06:22;;;;;;;3.63;2.20;;;16.10;99.90;;;;;;5086153;28;20463;-65
2022/08/09 04:08:47;;;;;;;2.37;1.80;;;16.10;99.90;;;;;;5087118;28;20378;-65
2022/08/09 04:11:13;;;;;;;3.70;2.20;;;16.10;99.90;;;;;;5085983;28;20732;-65
2022/08/09 04:13:39;;;;;;;4.57;2.40;;;16.10;99.90;;;;;;5069162;28;20807;-65
2022/08/09 04:16:05;;;;;;;3.78;2.25;;;16.10;99.90;;;;;;5085929;28;20378;-65
2022/08/09 04:18:30;;;;;;;2.87;2.20;;;16.10;99.90;;;;;;5087600;28;20382;-65
2022/08/09 04:20:56;;;;;;;2.85;2.00;;;16.10;99.90;;;;;;5087588;28;20397;-65
2022/08/09 04:23:22;;;;;;;2.73;1.90;;;16.10;99.90;;;;;;5089996;28;20510;-65
2022/08/09 04:25:47;;;;;;;2.30;2.10;;;16.20;99.90;;;;;;5088891;28;20380;-65
2022/08/09 04:28:13;;;;;;;2.97;2.40;;;16.10;99.90;;;;;;5087976;28;20409;-65
2022/08/09 04:30:39;;;;;;;2.70;2.22;;;16.10;99.90;;;;;;5090374;28;20386;-65
2022/08/09 04:33:05;;;;;;;3.65;2.25;;;16.20;99.90;;;;;;5090139;28;20825;-65
2022/08/09 04:35:30;;;;;;;3.90;2.10;;;16.20;99.90;;;;;;5088263;28;20675;-65
2022/08/09 04:37:56;;;;;;;2.63;2.40;;;16.30;99.90;;;;;;5084603;28;20495;-65
2022/08/09 04:40:22;;;;;;;3.95;2.33;;;16.30;99.90;;;;;;5086486;28;20422;-65
2022/08/09 04:42:47;;;;;;;4.10;2.83;;;16.30;99.90;;;;;;5087670;28;20385;-65
2022/08/09 04:45:13;;;;;;;3.28;2.70;;;16.30;99.90;;;;;;5086206;28;20386;-65
2022/08/09 04:47:38;;;;;;;2.90;2.70;;;16.30;99.90;;;;;;5086408;28;20424;-65
2022/08/09 04:50:05;;;;;;;3.25;2.50;;;16.20;99.90;;;;;;5086281;28;20396;-65
2022/08/09 04:52:30;;;;;;;2.80;2.38;;;16.20;99.90;;;;;;5086269;28;20473;-65
2022/08/09 04:54:58;;;;;;;3.35;2.53;;;16.20;99.90;;;;;;5084543;28;20389;-65
2022/08/09 04:57:24;;;;;;;3.22;2.80;;;16.30;99.90;;;;;;5085394;28;20466;-65
2022/08/09 04:59:50;;;;;;;3.05;2.58;;;16.30;99.90;;;;;;5086732;28;20469;-65
2022/08/09 05:02:15;;;;;;;2.50;2.30;;;16.40;99.90;;;;;;5087113;28;20477;-65
2022/08/09 05:04:41;;;;;;;3.15;2.85;;;16.40;99.90;;;;;;5085688;28;20451;-65
2022/08/09 05:07:07;;;;;;;3.83;2.80;;;16.40;99.90;;;;;;5085687;28;20410;-65
2022/08/09 05:09:32;;;;;;;3.53;2.20;;;16.40;99.90;;;;;;5084298;28;20598;-65
2022/08/09 05:11:58;;;;;;;9.57;2.70;;;16.40;99.90;;;;;;5085804;28;20393;-65
2022/08/09 05:14:23;;;;;;;3.27;2.73;;;16.40;99.90;;;;;;5085429;28;20858;-66
2022/08/09 05:16:49;;;;;;;4.10;2.63;;;16.40;99.90;;;;;;5086056;28;20386;-65
2022/08/09 05:19:20;;;;;;;4.07;2.88;;;16.40;99.90;;;;;;5085296;28;20390;-65
2022/08/09 05:21:47;;;;;;;3.42;3.05;;;16.50;99.90;;;;;;5085866;28;20892;-65
2022/08/09 05:24:13;;;;;;;3.65;2.80;;;16.40;99.90;;;;;;5088003;28;20950;-65
2022/08/09 05:26:39;;;;;;;3.23;2.93;;;16.40;99.90;;;;;;5085994;28;20849;-65
2022/08/09 05:29:05;;;;;;;4.03;2.70;;;16.50;99.90;;;;;;5084823;28;20621;-65
2022/08/09 05:31:30;;;;;;;4.03;2.60;;;16.50;99.90;;;;;;5083855;28;20369;-65
2022/08/09 05:33:56;;;;;;;4.70;3.27;;;16.60;99.90;;;;;;5082138;28;20383;-65
2022/08/09 05:36:21;;;;;;;5.03;2.90;;;16.60;99.90;;;;;;5081819;28;20456;-65
2022/08/09 05:38:47;;;;;;;4.18;2.88;;;16.60;99.90;;;;;;5082656;28;20433;-65
2022/08/09 05:41:13;;;;;;;3.70;2.30;;;16.70;99.90;;;;;;5081636;28;20386;-65
2022/08/09 05:43:38;;;;;;;3.13;2.55;;;16.70;99.90;;;;;;5081290;28;20438;-65
2022/08/09 05:46:04;;;;;;;2.80;2.50;;;16.70;99.90;;;;;;5082684;28;20697;-65
2022/08/09 05:48:29;;;;;;;4.40;3.07;;;16.70;99.90;;;;;;5083864;28;20819;-65
2022/08/09 05:50:55;;;;;;;3.50;2.70;;;16.70;99.90;;;;;;5085471;28;20685;-65
2022/08/09 05:53:21;;;;;;;2.92;2.58;;;16.80;99.90;;;;;;5082161;28;20402;-65
2022/08/09 05:55:47;;;;;;;3.75;2.38;;;16.80;99.90;;;;;;5085141;28;20481;-65
2022/08/09 05:58:13;;;;;;;3.50;2.60;;;16.80;99.90;;;;;;5084198;28;20390;-65
2022/08/09 06:00:38;;;;;;;4.22;2.75;;;16.80;99.90;;;;;;5082859;28;20841;-65
2022/08/09 06:03:04;;;;;;;3.15;2.30;;;16.80;99.90;;;;;;5082590;28;20378;-65
2022/08/09 06:05:32;;;;;;;2.73;2.23;;;16.90;99.90;;;;;;5080710;28;20393;-65
2022/08/09 06:07:58;;;;;;;3.55;2.30;;;16.80;99.90;;;;;;5078437;28;20474;-65
2022/08/09 06:10:36;;;;;;;2.92;2.10;;;16.90;99.90;;;;;;5060593;28;20382;-65
2022/08/09 06:13:07;;;;;;;3.03;2.28;;;16.90;99.90;;;;;;5080400;28;20378;-65
2022/08/09 06:15:32;;;;;;;4.87;2.60;;;17.00;99.90;;;;;;5077940;28;20402;-65
2022/08/09 06:17:58;;;;;;;3.00;2.40;;;17.00;99.90;;;;;;5078130;28;20660;-65
2022/08/09 06:20:24;;;;;;;3.75;2.53;;;17.00;99.90;;;;;;5078353;28;20530;-65
2022/08/09 06:22:49;;;;;;;2.83;2.05;;;17.10;99.90;;;;;;5077730;28;20503;-65
2022/08/09 06:25:15;;;;;;;2.73;2.20;;;17.10;99.90;;;;;;5076298;28;20401;-65
2022/08/09 06:27:41;;;;;;;3.00;2.22;;;17.20;99.90;;;;;;5075383;28;20637;-65
2022/08/09 06:30:07;;;;;;;3.28;2.40;;;17.20;99.90;;;;;;5073032;28;20413;-65
2022/08/09 06:32:33;;;;;;;3.13;2.00;;;17.20;99.90;;;;;;5073541;28;20520;-65
2022/08/09 06:34:58;;;;;;;3.35;2.45;;;17.30;99.90;;;;;;5073810;28;20680;-65
2022/08/09 06:37:24;;;;;;;2.57;2.30;;;17.30;99.90;;;;;;5075166;28;20727;-65
2022/08/09 06:39:49;;;;;;;1.77;1.67;;;17.30;99.90;;;;;;5075093;28;20500;-65
2022/08/09 06:42:17;;;;;;;2.70;2.07;;;17.40;99.90;;;;;;5074091;28;20970;-65
2022/08/09 06:44:42;;;;;;;2.38;1.95;;;17.40;99.90;;;;;;5072778;28;20386;-65
2022/08/09 06:47:08;;;;;;;3.10;1.90;;;17.50;99.90;;;;;;5075528;28;20412;-65
2022/08/09 06:49:34;;;;;;;2.00;1.80;;;17.60;99.90;;;;;;5074826;28;20472;-65
2022/08/09 06:51:59;;;;;;;2.83;1.90;;;17.60;99.90;;;;;;5073636;28;20399;-65
2022/08/09 06:54:25;;;;;;;1.73;1.47;;;17.70;99.90;;;;;;5074014;28;20794;-65
2022/08/09 06:56:50;;;;;;;2.80;2.20;;;17.70;99.90;;;;;;5074271;28;20575;-65
2022/08/09 06:59:16;;;;;;;2.72;2.00;;;17.80;99.90;;;;;;5075278;28;20686;-65
2022/08/09 07:01:41;;;;;;;3.00;2.17;;;17.80;99.90;;;;;;5074997;28;20476;-65
2022/08/09 07:04:07;;;;;;;3.75;2.20;;;17.80;99.90;;;;;;5075801;28;20457;-65
2022/08/09 07:06:34;;;;;;;4.87;2.57;;;17.90;99.90;;;;;;5078578;28;20432;-65
2022/08/09 07:08:59;;;;;;;5.47;2.85;;;17.90;99.90;;;;;;5076160;28;20394;-65
2022/08/09 07:11:25;;;;;;;5.25;2.60;;;18.00;99.90;;;;;;5076235;28;20484;-65
2022/08/09 07:13:51;;;;;;;4.93;2.23;;;18.00;99.90;;;;;;5072614;28;20374;-65
2022/08/09 07:16:16;;;;;;;1.95;1.75;;;18.00;99.90;;;;;;5070681;28;20621;-65
2022/08/09 07:18:42;;;;;;;5.18;2.40;;;18.10;99.90;;;;;;5070893;28;20461;-65
2022/08/09 07:21:07;;;;;;;2.50;1.70;;;18.10;99.90;;;;;;5067953;28;20446;-65
2022/08/09 07:23:33;;;;;;;2.17;1.50;;;18.20;99.90;;;;;;5068037;28;20653;-65
2022/08/09 07:25:59;;;;;;;2.55;2.10;;;18.30;99.90;;;;;;5065134;28;20447;-65
2022/08/09 07:28:25;;;;;;;3.67;2.90;;;18.30;99.90;;;;;;5066045;28;20628;-65
2022/08/09 07:30:52;;;;;;;2.70;1.90;;;18.30;99.90;;;;;;5067422;28;20530;-65
2022/08/09 07:33:18;;;;;;;3.00;2.03;;;18.40;99.90;;;;;;5066938;28;20374;-65
2022/08/09 07:35:44;;;;;;;2.45;1.50;;;18.50;99.90;;;;;;5071696;28;20444;-65
2022/08/09 07:38:09;;;;;;;2.93;1.80;;;18.60;99.90;;;;;;5070758;28;20412;-65
2022/08/09 07:40:35;;;;;;;2.50;2.10;;;18.60;99.90;;;;;;5072071;28;20604;-65
2022/08/09 07:43:00;;;;;;;3.25;2.30;;;18.70;99.90;;;;;;5072923;28;20797;-65
2022/08/09 07:45:28;;;;;;;3.23;1.83;;;18.70;99.90;;;;;;5074290;28;20374;-65
2022/08/09 07:47:55;;;;;;;1.67;1.50;;;18.70;99.90;;;;;;5074625;28;20467;-65
2022/08/09 07:50:23;;;;;;;2.35;1.80;;;18.70;99.90;;;;;;5075845;28;20378;-65
2022/08/09 07:52:48;;;;;;;1.95;1.70;;;18.80;99.90;;;;;;5076881;28;20397;-65
2022/08/09 07:55:14;;;;;;;3.40;2.10;;;18.80;99.90;;;;;;5075297;28;20387;-65
2022/08/09 07:57:40;;;;;;;3.53;2.10;;;18.90;99.90;;;;;;5076680;28;20379;-65
2022/08/09 08:00:06;;;;;;;2.53;1.75;;;18.90;99.90;;;;;;5076847;28;20431;-65
2022/08/09 08:02:32;;;;;;;2.97;1.70;;;18.90;99.90;;;;;;5076842;28;20378;-65
2022/08/09 08:04:58;;;;;;;2.50;1.33;;;19.00;99.90;;;;;;5073106;28;20394;-65
2022/08/09 08:07:23;;;;;;;2.55;1.73;;;19.10;99.90;;;;;;5073140;28;20800;-65
2022/08/09 08:09:50;;;;;;;2.20;1.30;;;19.10;99.90;;;;;;5077372;28;20479;-65
2022/08/09 08:12:15;;;;;;;2.85;1.40;;;19.20;99.90;;;;;;5081263;28;20386;-65
2022/08/09 08:14:41;;;;;;;4.35;1.80;;;19.20;99.90;;;;;;5081105;28;20374;-65
2022/08/09 08:17:07;;;;;;;1.60;1.42;;;19.30;99.90;;;;;;5079719;28;20445;-65
2022/08/09 08:19:33;;;;;;;1.42;1.30;;;19.30;99.90;;;;;;5081282;28;20382;-65
2022/08/09 08:21:59;;;;;;;2.88;1.42;;;19.40;99.90;;;;;;5082654;28;20476;-66
2022/08/09 08:24:24;;;;;;;2.67;1.97;;;19.40;99.90;;;;;;5081727;28;20715;-65
2022/08/09 08:26:50;;;;;;;3.45;1.45;;;19.40;99.90;;;;;;5084017;28;20430;-65
2022/08/09 08:29:18;;;;;;;2.78;1.58;;;19.40;99.90;;;;;;5083519;28;20397;-65
2022/08/09 08:31:44;;;;;;;2.67;1.45;;;19.50;99.90;;;;;;5082939;28;20374;-65
2022/08/09 08:34:10;;;;;;;2.70;1.45;;;19.50;99.90;;;;;;5083933;28;20405;-65
2022/08/09 08:36:35;;;;;;;2.92;1.55;;;19.50;99.90;;;;;;5081449;28;20378;-65
2022/08/09 08:39:02;;;;;;;2.17;1.07;;;19.50;99.90;;;;;;5081761;28;20697;-65
2022/08/09 08:41:29;;;;;;;1.70;1.25;;;19.60;99.90;;;;;;5081756;28;20813;-65
2022/08/09 08:43:55;;;;;;;1.67;1.17;;;19.70;99.90;;;;;;5082479;28;20858;-65
2022/08/09 08:46:24;;;;;;;4.13;1.67;;;19.70;99.90;;;;;;5083950;28;20386;-65
2022/08/09 08:48:50;;;;;;;3.05;1.67;;;19.90;99.90;;;;;;5085194;28;20793;-65
2022/08/09 08:51:17;;;;;;;2.40;1.23;;;19.90;99.90;;;;;;5084484;28;20448;-65
2022/08/09 08:53:42;;;;;;;1.35;1.00;;;19.90;99.90;;;;;;5083882;28;20394;-65
2022/08/09 08:56:08;;;;;;;1.20;1.00;;;19.90;99.90;;;;;;5084523;28;20378;-65
2022/08/09 08:58:35;;;;;;;1.80;1.10;;;20.00;99.90;;;;;;5085669;28;20421;-65
2022/08/09 09:01:02;;;;;;;2.80;1.13;;;20.00;99.90;;;;;;5084885;28;20378;-65
2022/08/09 09:03:33;;;;;;;1.25;0.90;;;20.10;99.90;;;;;;5083391;28;20401;-65
2022/08/09 09:06:02;;;;;;;2.55;1.30;;;20.20;99.90;;;;;;5082636;28;20378;-65
2022/08/09 09:08:31;;;;;;;2.67;1.55;;;20.30;99.90;;;;;;5082947;28;20682;-65
2022/08/09 09:11:02;;;;;;;1.73;1.33;;;20.30;99.90;;;;;;5085892;28;20412;-65
2022/08/09 09:13:30;;;;;;;2.88;1.35;;;20.30;99.90;;;;;;5087476;28;20378;-65
2022/08/09 09:15:56;;;;;;;2.70;1.50;;;20.30;99.90;;;;;;5076834;28;20377;-65
2022/08/09 09:18:21;;;;;;;2.05;1.30;;;20.30;99.90;;;;;;5074912;28;20821;-65
2022/08/09 09:20:47;;;;;;;2.27;1.30;;;20.40;99.90;;;;;;5076582;28;20675;-65
2022/08/09 09:23:12;;;;;;;1.50;1.20;;;20.50;99.90;;;;;;5077082;28;20662;-65
2022/08/09 09:25:42;;;;;;;1.85;1.27;;;20.60;99.90;;;;;;5076078;28;20772;-65
2022/08/09 09:28:10;;;;;;;2.05;0.90;;;20.60;99.90;;;;;;5067312;28;20849;-65
2022/08/09 09:30:53;;;;;;;1.63;1.10;;;20.70;99.90;;;;;;5067489;28;20376;-65
2022/08/09 09:33:19;;;;;;;2.20;0.90;;;20.80;99.90;;;;;;5067786;28;20391;-65
2022/08/09 09:35:57;;;;;;;2.22;1.17;;;20.90;99.90;;;;;;5066359;28;20415;-65
2022/08/09 09:38:42;;;;;;;2.83;1.30;;;20.90;99.90;;;;;;5067533;28;20478;-65
2022/08/09 09:41:09;;;;;;;1.05;0.90;;;21.00;99.90;;;;;;5067487;28;20399;-65
2022/08/09 09:43:34;;;;;;;1.92;1.00;;;20.90;99.90;;;;;;5067136;28;20437;-65
2022/08/09 09:46:04;;;;;;;0.80;0.80;;;20.90;99.90;;;;;;5067691;28;20383;-65
2022/08/09 09:48:29;;;;;;;1.67;1.02;;;21.00;99.90;;;;;;5065527;28;20449;-65
2022/08/09 09:50:55;;;;;;;2.20;1.10;;;21.10;99.90;;;;;;5068156;28;20396;-65
2022/08/09 09:53:23;;;;;;;2.23;1.00;;;21.10;99.90;;;;;;5066490;28;20403;-65
2022/08/09 09:55:50;;;;;;;1.27;0.90;;;21.20;99.90;;;;;;5066002;28;20383;-65
2022/08/09 09:58:16;;;;;;;1.27;0.80;;;21.30;99.90;;;;;;5067223;28;20449;-64
2022/08/09 10:00:54;;;;;;;1.10;1.00;;;21.40;99.90;;;;;;5067242;28;20395;-64
2022/08/09 10:03:38;;;;;;;2.00;1.13;;;21.50;99.90;;;;;;5066131;28;20495;-64
2022/08/09 10:06:04;;;;;;;2.90;1.20;;;21.60;99.90;;;;;;5064533;28;20383;-65
2022/08/09 10:08:30;;;;;;;2.30;0.98;;;21.70;99.90;;;;;;5065981;28;20422;-65
2022/08/09 10:10:56;;;;;;;1.95;1.20;;;21.80;99.90;;;;;;5067338;28;20387;-64
2022/08/09 10:13:21;;;;;;;1.17;0.82;;;21.90;99.90;;;;;;5065920;28;20460;-64
2022/08/09 10:15:51;;;;;;;2.20;1.20;;;21.90;99.90;;;;;;5057047;28;20395;-64
2022/08/09 10:18:17;;;;;;;2.20;0.98;;;22.00;99.90;;;;;;5055788;28;20668;-64
2022/08/09 10:20:43;;;;;;;1.50;0.90;;;22.00;99.90;;;;;;5057263;28;20419;-64
2022/08/09 10:23:13;;;;;;;1.98;1.00;;;22.00;99.90;;;;;;5058022;28;20675;-64
2022/08/09 10:25:40;;;;;;;0.75;0.65;;;21.90;99.90;;;;;;5056650;28;20391;-65
2022/08/09 10:28:06;;;;;;;0.70;0.70;;;22.00;99.90;;;;;;5053102;28;20620;-64
2022/08/09 10:30:32;;;;;;;1.65;0.95;;;22.10;99.90;;;;;;5051673;28;20734;-64
2022/08/09 10:32:59;;;;;;;1.08;0.80;;;22.10;99.90;;;;;;5054244;28;20367;-64
2022/08/09 10:35:24;;;;;;;0.98;0.70;;;22.20;99.90;;;;;;5055053;28;20449;-64
2022/08/09 10:37:52;;;;;;;2.22;1.20;;;22.20;99.90;;;;;;5052711;28;20404;-64
2022/08/09 10:40:18;;;;;;;2.45;1.20;;;22.30;99.90;;;;;;5060982;28;20390;-65
2022/08/09 10:42:44;;;;;;;1.02;0.73;;;22.30;99.90;;;;;;5061843;28;20467;-64
2022/08/09 10:45:12;;;;;;;0.90;0.90;;;22.40;99.90;;;;;;5058252;28;20651;-64
2022/08/09 10:48:13;;;;;;;0.65;0.60;;;22.50;99.90;;;;;;5058386;28;20492;-65
2022/08/09 10:53:49;;;;;;;2.88;0.80;;;22.60;99.90;;;;;;5056497;28;20533;-64
2022/08/09 10:56:22;;;;;;;1.08;0.82;;;22.60;99.90;;;;;;5056237;28;20750;-64
2022/08/09 10:58:48;;;;;;;1.35;0.77;;;22.70;99.90;;;;;;5057194;28;20466;-64
2022/08/09 11:01:38;;;;;;;0.60;0.55;;;22.80;99.90;;;;;;5057690;28;20460;-64
2022/08/09 11:04:23;;;;;;;2.92;1.00;;;22.80;99.90;;;;;;5054773;28;20384;-64
2022/08/09 11:07:08;;;;;;;2.22;1.17;;;22.70;99.90;;;;;;5054030;28;20607;-64
2022/08/09 11:09:37;;;;;;;0.93;0.70;;;22.70;99.90;;;;;;5055047;28;20648;-64
2022/08/09 11:12:15;;;;;;;4.05;1.20;;;22.80;99.90;;;;;;5057576;28;20381;-64
2022/08/09 11:14:53;;;;;;;2.00;0.80;;;22.80;99.90;;;;;;5055537;28;20805;-64
2022/08/09 11:17:22;;;;;;;2.55;1.30;;;22.90;99.90;;;;;;5054717;28;20414;-64
2022/08/09 11:20:07;;;;;;;2.55;1.15;;;22.90;99.90;;;;;;5055091;28;20766;-64
2022/08/09 11:22:49;;;;;;;1.53;1.03;;;22.70;99.90;;;;;;5055440;28;20472;-64
2022/08/09 11:25:42;;;;;;;2.30;1.17;;;22.70;99.90;;;;;;5061279;28;20474;-64
2022/08/09 11:28:38;;;;;;;0.95;0.85;;;22.70;99.90;;;;;;5093470;28;20407;-65
2022/08/09 11:31:40;;;;;;;2.67;1.15;;;22.70;99.90;;;;;;5059065;28;20403;-65
2022/08/09 11:34:15;;;;;;;3.10;1.25;;;22.70;99.90;;;;;;5061175;28;20411;-65
2022/08/09 11:36:42;;;;;;;3.20;1.10;;;22.80;99.90;;;;;;5065157;28;20379;-65
2022/08/09 11:39:08;;;;;;;1.73;0.90;;;23.20;99.90;;;;;;5066044;28;20427;-65
2022/08/09 11:41:34;;;;;;;2.90;0.90;;;23.40;99.90;;;;;;5066696;28;20434;-65
2022/08/09 11:43:59;;;;;;;3.25;1.20;;;23.50;99.90;;;;;;5064796;28;20392;-65
2022/08/09 11:46:27;;;;;;;1.43;0.90;;;23.70;99.90;;;;;;5065944;28;20384;-66
2022/08/09 11:48:55;;;;;;;0.90;0.85;;;23.80;99.90;;;;;;5065893;28;20415;-65
2022/08/09 11:51:24;;;;;;;1.10;0.70;;;24.20;99.90;;;;;;5063193;28;20380;-65
2022/08/09 11:54:23;;;;;;;1.58;0.90;;;24.50;99.90;;;;;;5063593;28;20460;-66
2022/08/09 11:56:48;;;;;;;1.75;0.80;;;24.60;99.90;;;;;;5062024;28;20452;-65
2022/08/09 11:59:25;;;;;;;1.52;0.80;;;24.70;99.90;;;;;;5062266;28;20391;-65
2022/08/09 12:01:51;;;;;;;1.50;0.60;;;24.60;99.90;;;;;;5065991;28;20870;-65
2022/08/09 12:04:17;;;;;;;1.10;0.60;;;24.50;99.90;;;;;;5063856;28;20478;-65
2022/08/09 12:06:55;;;;;;;0.63;0.60;;;24.40;99.90;;;;;;5064986;28;20415;-64
2022/08/09 12:09:26;;;;;;;2.55;0.65;;;24.40;99.90;;;;;;5056318;28;20597;-64
2022/08/09 12:12:01;;;;;;;2.92;1.00;;;24.50;99.90;;;;;;5055149;28;20434;-64
2022/08/09 12:14:32;;;;;;;2.63;1.20;;;24.60;99.90;;;;;;5052923;28;20384;-64
2022/08/09 12:16:58;;;;;;;1.50;1.00;;;24.80;99.90;;;;;;5047130;28;20687;-64
2022/08/09 12:19:31;;;;;;;2.20;0.80;;;24.80;99.90;;;;;;5052226;28;20385;-64
2022/08/09 12:22:02;;;;;;;0.90;0.73;;;24.90;99.90;;;;;;5052560;28;20383;-65
2022/08/09 12:24:28;;;;;;;1.60;0.90;;;25.30;99.90;;;;;;5052884;28;20461;-65
2022/08/09 12:26:55;;;;;;;4.33;1.23;;;25.70;99.90;;;;;;5051919;28;20664;-64
2022/08/09 12:29:27;;;;;;;1.20;0.80;;;25.90;99.90;;;;;;5048215;28;20387;-65
2022/08/09 12:32:23;;;;;;;0.50;0.50;;;26.30;99.90;;;;;;5051594;28;20376;-64
2022/08/09 12:34:49;;;;;;;0.70;0.63;;;26.70;99.90;;;;;;5048618;28;20493;-66
2022/08/09 12:37:15;;;;;;;2.33;0.77;;;26.80;99.90;;;;;;5050147;28;20834;-65
2022/08/09 12:39:41;;;;;;;2.78;0.70;;;26.70;99.90;;;;;;5054060;28;20609;-64
2022/08/09 12:42:13;;;;;;;2.83;0.90;;;26.80;99.90;;;;;;5051690;28;20425;-64
2022/08/09 12:44:40;;;;;;;4.13;0.80;;;27.10;99.90;;;;;;5056286;28;20655;-64
2022/08/09 12:47:07;;;;;;;1.20;0.77;;;27.40;99.90;;;;;;5057976;28;20407;-64
2022/08/09 12:49:34;;;;;;;0.88;0.60;;;27.50;99.90;;;;;;5055016;28;20415;-65
2022/08/09 12:52:00;;;;;;;1.93;0.90;;;27.60;99.90;;;;;;5056522;28;20375;-65
2022/08/09 12:54:25;;;;;;;2.38;0.90;;;27.40;99.90;;;;;;5053879;28;20483;-65
2022/08/09 12:56:52;;;;;;;2.53;0.97;;;27.20;99.90;;;;;;5056092;28;20655;-66
2022/08/09 12:59:20;;;;;;;1.00;0.70;;;27.30;99.90;;;;;;5054106;28;20640;-66